Time;durP1;ratioP1;P1;durP2;ratioP2;P2;SDS_P1;SDS_P2;PMS_P1;PMS_P2;Temp;Humidity;BMP_temperature;BMP_pressure;BME280_temperature;BME280_humidity;BME280_pressure;Samples;Min_cycle;Max_cycle;Signal;HPM_P1;HPM_P2
2023/04/24 00:02:10;;;;;;;122.10;24.80;;;;;;;7.42;100.00;101051.64;107091;1280;59037;-83
2023/04/24 00:04:40;;;;;;;93.90;32.50;;;;;;;7.17;100.00;101048.66;107492;1278;73419;-83
2023/04/24 00:07:06;;;;;;;127.10;29.10;;;;;;;7.28;100.00;101047.46;107476;1278;72533;-83
2023/04/24 00:09:32;;;;;;;92.50;24.90;;;;;;;7.26;100.00;101046.98;107470;1279;58985;-82
2023/04/24 00:11:58;;;;;;;84.70;24.10;;;;;;;7.24;100.00;101047.09;107493;1278;59152;-83
2023/04/24 00:14:24;;;;;;;44.50;21.10;;;;;;;7.21;100.00;101046.19;107505;1279;59038;-82
2023/04/24 00:16:49;;;;;;;47.00;19.70;;;;;;;7.18;100.00;101042.93;107507;1278;59321;-83
2023/04/24 00:19:15;;;;;;;65.70;22.50;;;;;;;7.24;100.00;101047.30;107305;1279;59079;-83
2023/04/24 00:21:41;;;;;;;64.60;23.10;;;;;;;7.02;100.00;101052.52;107559;1278;59072;-83
2023/04/24 00:24:08;;;;;;;49.50;21.60;;;;;;;7.11;100.00;101050.89;107076;1280;75460;-83
2023/04/24 00:26:34;;;;;;;61.70;23.10;;;;;;;7.22;100.00;101051.55;107528;1279;74156;-83
2023/04/24 00:29:00;;;;;;;62.60;24.80;;;;;;;7.17;100.00;101049.61;107487;1278;59153;-83
2023/04/24 00:31:25;;;;;;;84.10;25.20;;;;;;;7.18;100.00;101051.63;107070;1284;59011;-83
2023/04/24 00:33:51;;;;;;;70.30;22.80;;;;;;;7.13;100.00;101054.70;107536;1278;59011;-83
2023/04/24 00:36:16;;;;;;;72.50;22.70;;;;;;;7.09;100.00;101053.11;107030;1279;59263;-83
2023/04/24 00:38:42;;;;;;;81.90;23.20;;;;;;;7.13;100.00;101054.54;107462;1279;73300;-83
2023/04/24 00:41:07;;;;;;;57.70;21.30;;;;;;;7.17;100.00;101054.70;107493;1278;59053;-83
2023/04/24 00:46:54;;;;;;;40.90;19.30;;;;;;;7.30;100.00;101062.69;107455;1279;74417;-83
2023/04/24 00:49:21;;;;;;;62.60;22.00;;;;;;;7.25;100.00;101061.52;107503;1278;59098;-83
2023/04/24 00:51:47;;;;;;;56.30;22.00;;;;;;;7.42;100.00;101060.86;107317;1279;59121;-83
2023/04/24 00:54:13;;;;;;;67.90;25.90;;;;;;;7.51;100.00;101063.61;106958;1285;59343;-83
2023/04/24 00:56:41;;;;;;;48.00;20.80;;;;;;;7.49;100.00;101066.43;106799;1284;59097;-83
2023/04/24 00:59:06;;;;;;;42.70;20.40;;;;;;;7.50;100.00;101068.38;106986;1283;59531;-83
2023/04/24 01:01:32;;;;;;;79.20;24.60;;;;;;;7.45;100.00;101065.83;106977;1284;59096;-83
2023/04/24 01:03:59;;;;;;;47.50;20.60;;;;;;;7.50;100.00;101063.48;106697;1285;59078;-83
2023/04/24 01:06:28;;;;;;;40.20;19.90;;;;;;;7.56;100.00;101059.04;106921;1283;59164;-83
2023/04/24 01:08:55;;;;;;;37.20;18.40;;;;;;;7.64;100.00;101061.65;106954;1285;60225;-83
2023/04/24 01:11:21;;;;;;;55.80;19.10;;;;;;;7.71;100.00;101062.05;106962;1284;75637;-83
2023/04/24 01:13:48;;;;;;;38.80;19.80;;;;;;;7.79;100.00;101060.20;106926;1284;73547;-83
2023/04/24 01:16:15;;;;;;;49.30;22.10;;;;;;;7.84;100.00;101057.13;106681;1285;59198;-83
2023/04/24 01:18:41;;;;;;;63.80;26.90;;;;;;;7.91;100.00;101056.65;106900;1284;61484;-83
2023/04/24 01:21:09;;;;;;;59.30;24.90;;;;;;;7.95;100.00;101051.17;106948;1284;59146;-83
2023/04/24 01:23:34;;;;;;;48.70;21.80;;;;;;;8.02;100.00;101055.05;106669;1285;75249;-83
2023/04/24 01:26:00;;;;;;;47.80;20.80;;;;;;;8.08;100.00;101052.67;107238;1279;59073;-83
2023/04/24 01:28:26;;;;;;;41.30;20.50;;;;;;;8.07;100.00;101052.10;107352;1279;59561;-83
2023/04/24 01:30:53;;;;;;;44.80;19.30;;;;;;;8.05;100.00;101049.54;107330;1279;59410;-83
2023/04/24 01:33:21;;;;;;;43.30;18.50;;;;;;;8.23;100.00;101045.52;107433;1279;59061;-83
2023/04/24 01:35:47;;;;;;;45.80;20.00;;;;;;;8.33;100.00;101046.27;107451;1279;59094;-84
2023/04/24 01:38:12;;;;;;;49.10;19.70;;;;;;;8.33;100.00;101042.99;107511;1279;58994;-83
2023/04/24 01:40:38;;;;;;;36.20;17.40;;;;;;;8.37;100.00;101041.84;107319;1279;59201;-83
2023/04/24 01:43:03;;;;;;;53.40;17.80;;;;;;;8.38;100.00;101041.02;107462;1279;59062;-84
2023/04/24 01:45:29;;;;;;;40.00;17.20;;;;;;;8.42;100.00;101038.39;107536;1279;59134;-84
2023/04/24 01:47:55;;;;;;;44.90;17.20;;;;;;;8.51;100.00;101037.42;107503;1279;74327;-84
2023/04/24 01:50:21;;;;;;;51.70;16.60;;;;;;;8.54;100.00;101028.30;107484;1279;59049;-83
2023/04/24 01:52:46;;;;;;;39.90;15.60;;;;;;;8.54;100.00;101028.09;107504;1279;59009;-84
2023/04/24 01:55:12;;;;;;;43.70;15.50;;;;;;;8.63;100.00;101027.46;107514;1278;59113;-84
2023/04/24 01:57:38;;;;;;;49.20;18.10;;;;;;;8.72;100.00;101027.92;107484;1278;59345;-84
2023/04/24 02:00:05;;;;;;;62.60;17.60;;;;;;;8.79;100.00;101028.88;107487;1279;59171;-84
2023/04/24 02:02:30;;;;;;;52.90;16.50;;;;;;;8.85;100.00;101030.07;107322;1279;60876;-83
2023/04/24 02:04:57;;;;;;;41.20;16.00;;;;;;;8.87;100.00;101029.14;107039;1278;59341;-83
2023/04/24 02:07:22;;;;;;;55.90;16.90;;;;;;;8.85;100.00;101028.63;107041;1278;59133;-83
2023/04/24 02:09:48;;;;;;;57.40;16.80;;;;;;;8.87;100.00;101028.56;107505;1278;59100;-83
2023/04/24 02:12:15;;;;;;;59.60;16.60;;;;;;;8.91;100.00;101024.44;107431;1279;59258;-83
2023/04/24 02:14:42;;;;;;;58.80;16.50;;;;;;;8.92;100.00;101030.64;107319;1279;59163;-84
2023/04/24 02:17:07;;;;;;;57.00;16.40;;;;;;;8.92;100.00;101037.61;107529;1279;59025;-83
2023/04/24 02:19:33;;;;;;;66.30;16.70;;;;;;;8.94;100.00;101040.74;107196;1278;60067;-84
2023/04/24 02:21:58;;;;;;;45.60;16.30;;;;;;;9.00;100.00;101043.07;107541;1279;59868;-84
2023/04/24 02:24:24;;;;;;;57.10;16.30;;;;;;;9.03;100.00;101041.36;107009;1283;61865;-83
2023/04/24 02:26:49;;;;;;;40.40;16.40;;;;;;;9.10;100.00;101041.70;107386;1279;59096;-84
2023/04/24 02:29:15;;;;;;;52.30;16.30;;;;;;;9.15;100.00;101043.46;107032;1279;59144;-83
2023/04/24 02:35:02;;;;;;;57.10;17.20;;;;;;;9.26;100.00;101040.67;107449;1279;71675;-84
2023/04/24 02:37:28;;;;;;;57.70;16.10;;;;;;;9.29;100.00;101043.04;107480;1279;59055;-84
2023/04/24 02:39:53;;;;;;;39.90;14.10;;;;;;;9.32;100.00;101042.94;107064;1278;59107;-83
2023/04/24 02:42:19;;;;;;;47.40;14.40;;;;;;;9.30;100.00;101039.71;107521;1278;59330;-83
2023/04/24 02:44:45;;;;;;;51.30;16.30;;;;;;;9.37;100.00;101045.48;107502;1279;59084;-84
2023/04/24 02:47:10;;;;;;;43.50;15.10;;;;;;;9.42;100.00;101042.80;107508;1279;59413;-83
2023/04/24 02:49:36;;;;;;;43.40;14.80;;;;;;;9.41;100.00;101043.42;107512;1278;59112;-84
2023/04/24 02:52:01;;;;;;;53.80;15.80;;;;;;;9.39;100.00;101045.86;107514;1278;59069;-85
2023/04/24 02:54:27;;;;;;;51.30;15.80;;;;;;;9.42;100.00;101043.77;107500;1279;59910;-84
2023/04/24 02:56:52;;;;;;;51.30;15.20;;;;;;;9.40;100.00;101043.52;107088;1279;59111;-84
2023/04/24 02:59:18;;;;;;;44.20;15.50;;;;;;;9.41;100.00;101045.67;107135;1282;59203;-84
2023/04/24 03:01:43;;;;;;;49.50;15.20;;;;;;;9.44;100.00;101042.25;107180;1281;59155;-84
2023/04/24 03:04:10;;;;;;;45.30;14.90;;;;;;;9.49;100.00;101047.45;107170;1281;59141;-84
2023/04/24 03:06:35;;;;;;;53.20;16.10;;;;;;;9.54;100.00;101048.45;107162;1281;59064;-84
2023/04/24 03:09:01;;;;;;;54.90;16.30;;;;;;;9.59;100.00;101047.19;107123;1281;59198;-83
2023/04/24 03:11:26;;;;;;;53.60;17.00;;;;;;;9.66;100.00;101046.83;107210;1281;59504;-83
2023/04/24 03:13:52;;;;;;;62.90;16.20;;;;;;;9.74;100.00;101047.30;106957;1283;59190;-84
2023/04/24 03:16:17;;;;;;;53.40;16.50;;;;;;;9.79;100.00;101045.81;107030;1281;59237;-84
2023/04/24 03:18:43;;;;;;;62.10;17.80;;;;;;;9.84;100.00;101044.23;107160;1281;59184;-85
2023/04/24 03:21:08;;;;;;;60.50;18.60;;;;;;;9.87;100.00;101048.27;107203;1282;59137;-84
2023/04/24 03:23:34;;;;;;;56.40;16.40;;;;;;;9.90;100.00;101046.71;106714;1282;59312;-83
2023/04/24 03:25:59;;;;;;;44.30;17.40;;;;;;;9.95;100.00;101050.92;107233;1282;59283;-83
2023/04/24 03:28:25;;;;;;;45.10;15.80;;;;;;;9.98;100.00;101051.80;107215;1281;59260;-83
2023/04/24 03:30:51;;;;;;;39.90;16.60;;;;;;;10.02;100.00;101055.73;107197;1282;59511;-83
2023/04/24 03:33:17;;;;;;;30.70;16.00;;;;;;;10.10;100.00;101058.45;106944;1281;59062;-82
2023/04/24 03:35:42;;;;;;;41.80;17.80;;;;;;;10.20;100.00;101057.36;107192;1282;59167;-82
2023/04/24 03:38:08;;;;;;;38.30;16.40;;;;;;;10.27;100.00;101058.95;107371;1279;59170;-82
2023/04/24 03:40:34;;;;;;;38.20;15.20;;;;;;;10.31;100.00;101061.64;106977;1279;59118;-82
2023/04/24 03:42:59;;;;;;;38.90;15.90;;;;;;;10.35;100.00;101060.95;107386;1279;75492;-82
2023/04/24 03:45:25;;;;;;;35.00;15.30;;;;;;;10.34;100.00;101062.19;107404;1279;59105;-82
2023/04/24 03:47:50;;;;;;;36.90;15.70;;;;;;;10.33;100.00;101059.64;107417;1278;59075;-83
2023/04/24 03:50:19;;;;;;;33.90;16.10;;;;;;;10.35;100.00;101063.56;107468;1279;59082;-80
2023/04/24 03:52:45;;;;;;;38.00;16.10;;;;;;;10.38;100.00;101061.70;107358;1278;59105;-82
2023/04/24 03:55:12;;;;;;;37.60;17.10;;;;;;;10.35;100.00;101065.23;107510;1278;59009;-81
2023/04/24 03:57:38;;;;;;;36.00;15.90;;;;;;;10.35;100.00;101066.95;107458;1278;59163;-80
2023/04/24 04:00:05;;;;;;;41.30;15.80;;;;;;;10.45;100.00;101068.50;106975;1279;59319;-80
2023/04/24 04:02:30;;;;;;;38.30;16.20;;;;;;;10.62;100.00;101073.09;107102;1279;59085;-80
2023/04/24 04:04:56;;;;;;;40.30;15.90;;;;;;;10.76;100.00;101070.81;107535;1279;59166;-80
2023/04/24 04:07:21;;;;;;;41.80;16.70;;;;;;;10.84;100.00;101073.52;107059;1279;59202;-81
2023/04/24 04:09:47;;;;;;;42.70;17.90;;;;;;;11.00;100.00;101074.30;107456;1278;59391;-81
2023/04/24 04:12:12;;;;;;;40.50;17.80;;;;;;;11.14;100.00;101071.30;107494;1278;59051;-81
2023/04/24 04:14:38;;;;;;;39.60;17.30;;;;;;;11.34;100.00;101073.05;107523;1278;59079;-81
2023/04/24 04:17:03;;;;;;;38.90;16.60;;;;;;;11.51;100.00;101071.75;107561;1278;59129;-81
2023/04/24 04:19:29;;;;;;;37.20;15.70;;;;;;;11.65;100.00;101070.48;107510;1279;59022;-82
2023/04/24 04:21:56;;;;;;;39.60;16.10;;;;;;;11.86;100.00;101072.48;106988;1281;59175;-81
2023/04/24 04:24:22;;;;;;;34.80;15.80;;;;;;;12.08;100.00;101075.29;107391;1278;60195;-81
2023/04/24 04:26:51;;;;;;;41.60;16.00;;;;;;;12.28;100.00;101076.35;107480;1278;59331;-81
2023/04/24 04:29:20;;;;;;;37.40;15.30;;;;;;;12.41;100.00;101074.82;107485;1278;74561;-80
2023/04/24 04:31:46;;;;;;;42.50;16.40;;;;;;;12.58;100.00;101074.83;107467;1279;72588;-81
2023/04/24 04:34:12;;;;;;;41.50;15.40;;;;;;;12.79;100.00;101074.77;107489;1279;59133;-81
2023/04/24 04:36:39;;;;;;;30.90;14.60;;;;;;;13.01;100.00;101080.67;107490;1278;59013;-81
2023/04/24 04:39:06;;;;;;;27.90;12.00;;;;;;;13.12;100.00;101074.95;107051;1278;59309;-81
2023/04/24 04:41:32;;;;;;;33.80;11.40;;;;;;;13.28;100.00;101073.45;107515;1278;59040;-81
2023/04/24 04:44:00;;;;;;;24.20;11.10;;;;;;;14.08;100.00;101075.58;107506;1279;59075;-82
2023/04/24 04:46:25;;;;;;;16.30;8.50;;;;;;;15.44;100.00;101074.17;107461;1279;61582;-82
2023/04/24 04:48:52;;;;;;;18.00;8.90;;;;;;;16.49;100.00;101067.30;107511;1278;59056;-81
2023/04/24 04:51:18;;;;;;;15.40;7.70;;;;;;;16.78;100.00;101067.27;107507;1279;59039;-82
2023/04/24 04:53:43;;;;;;;12.50;6.90;;;;;;;17.60;100.00;101065.89;107474;1278;59079;-82
2023/04/24 04:56:09;;;;;;;15.10;7.20;;;;;;;18.19;100.00;101070.54;107020;1279;60118;-82
2023/04/24 04:58:34;;;;;;;14.80;7.30;;;;;;;18.87;100.00;101063.89;107549;1278;59099;-82
2023/04/24 05:01:00;;;;;;;17.50;6.90;;;;;;;19.90;100.00;101068.50;107468;1279;75447;-82
2023/04/24 05:03:25;;;;;;;19.30;7.80;;;;;;;20.86;100.00;101058.73;107488;1278;59006;-82
2023/04/24 05:05:51;;;;;;;11.60;6.00;;;;;;;21.63;100.00;101059.09;107492;1279;59058;-83
2023/04/24 05:08:16;;;;;;;10.10;6.10;;;;;;;22.47;96.97;101056.45;107501;1278;59502;-82
2023/04/24 05:10:42;;;;;;;19.30;7.00;;;;;;;23.45;88.27;101058.03;107525;1279;59087;-83
2023/04/24 05:13:07;;;;;;;10.90;5.70;;;;;;;24.08;78.53;101053.88;107382;1280;59101;-82
2023/04/24 05:15:33;;;;;;;11.10;5.90;;;;;;;24.59;71.67;101049.98;107448;1279;59209;-83
2023/04/24 05:17:59;;;;;;;8.70;5.60;;;;;;;25.10;68.37;101047.66;107346;1279;59027;-83
2023/04/24 05:20:25;;;;;;;13.20;5.90;;;;;;;25.68;64.75;101044.70;107195;1279;59086;-83
2023/04/24 05:22:51;;;;;;;10.80;6.40;;;;;;;26.25;63.48;101042.41;107478;1278;59068;-88
2023/04/24 05:25:16;;;;;;;16.20;5.90;;;;;;;27.17;63.90;101039.89;107501;1278;59383;-83
2023/04/24 05:27:42;;;;;;;9.80;5.30;;;;;;;27.84;58.32;101038.91;107460;1279;60955;-83
2023/04/24 05:30:09;;;;;;;8.70;4.40;;;;;;;28.25;53.53;101036.09;107509;1279;59288;-83
2023/04/24 05:32:35;;;;;;;11.20;5.80;;;;;;;28.31;50.97;101032.31;107100;1279;59058;-86
2023/04/24 05:35:01;;;;;;;12.30;5.30;;;;;;;28.44;51.11;101028.91;107483;1278;59079;-86
2023/04/24 05:37:27;;;;;;;11.00;6.10;;;;;;;28.43;50.06;101028.90;106903;1282;58994;-86
2023/04/24 05:39:52;;;;;;;11.40;5.40;;;;;;;28.61;49.22;101026.17;106432;1282;59571;-86
2023/04/24 05:42:18;;;;;;;12.50;5.60;;;;;;;28.42;46.49;101028.23;107054;1282;59068;-86
2023/04/24 05:44:44;;;;;;;12.60;5.40;;;;;;;28.19;46.25;101031.64;107000;1282;59185;-86
2023/04/24 05:47:10;;;;;;;13.20;5.70;;;;;;;27.90;45.28;101030.48;106991;1282;72170;-86
2023/04/24 05:49:35;;;;;;;14.90;5.80;;;;;;;27.79;45.09;101026.00;106802;1283;59140;-86
2023/04/24 05:52:03;;;;;;;13.40;5.50;;;;;;;28.09;47.00;101022.50;106756;1282;59280;-86
2023/04/24 05:54:29;;;;;;;9.20;4.70;;;;;;;28.77;45.09;101016.67;106721;1282;59163;-86
2023/04/24 05:56:55;;;;;;;15.80;5.20;;;;;;;29.30;43.49;101010.05;107052;1282;59383;-86
2023/04/24 05:59:21;;;;;;;12.70;5.20;;;;;;;29.35;44.30;101009.55;106700;1282;59114;-86
2023/04/24 06:01:47;;;;;;;11.50;4.80;;;;;;;30.03;43.52;101011.42;107030;1282;59000;-87
2023/04/24 06:04:15;;;;;;;14.50;4.30;;;;;;;30.73;41.13;101007.50;106596;1282;59131;-87
2023/04/24 06:06:41;;;;;;;11.90;4.00;;;;;;;30.61;38.41;101011.05;107057;1282;59920;-87
2023/04/24 06:09:07;;;;;;;7.70;3.70;;;;;;;30.41;39.99;101016.71;107028;1282;59097;-87
2023/04/24 06:11:32;;;;;;;9.90;4.00;;;;;;;30.83;38.80;101011.30;106910;1282;59457;-87
2023/04/24 06:13:58;;;;;;;13.00;3.60;;;;;;;30.86;38.89;101009.66;107029;1282;59084;-87
2023/04/24 06:16:23;;;;;;;9.70;3.90;;;;;;;31.09;38.72;101010.17;107124;1279;59465;-88
2023/04/24 06:18:50;;;;;;;12.90;4.00;;;;;;;31.71;38.37;101012.65;107390;1279;59073;-87
2023/04/24 06:21:16;;;;;;;8.00;2.60;;;;;;;31.42;35.66;101014.55;107372;1279;59053;-87
2023/04/24 06:23:42;;;;;;;9.70;3.00;;;;;;;30.91;37.26;101011.12;107359;1279;59039;-87
2023/04/24 06:26:07;;;;;;;4.70;1.90;;;;;;;31.37;36.94;101015.08;107385;1279;59070;-87
2023/04/24 06:28:33;;;;;;;11.00;3.10;;;;;;;31.42;35.03;101020.20;107234;1279;59011;-87
2023/04/24 06:30:58;;;;;;;8.00;2.40;;;;;;;30.94;34.86;101018.92;107340;1279;59088;-87
2023/04/24 06:33:24;;;;;;;9.50;2.90;;;;;;;30.52;35.61;101017.91;107516;1279;59128;-87
2023/04/24 06:35:50;;;;;;;6.00;2.30;;;;;;;30.21;34.99;101021.77;107508;1279;59081;-87
2023/04/24 06:38:15;;;;;;;7.10;2.80;;;;;;;29.94;35.32;101022.55;107498;1278;59073;-86
2023/04/24 06:40:41;;;;;;;11.50;3.40;;;;;;;29.47;36.41;101021.45;107283;1278;59126;-87
2023/04/24 06:43:07;;;;;;;4.50;2.50;;;;;;;29.77;36.17;101021.10;107492;1279;59172;-87
2023/04/24 06:45:32;;;;;;;8.60;3.00;;;;;;;29.47;35.57;101023.45;107112;1278;59080;-87
2023/04/24 06:47:58;;;;;;;10.20;2.60;;;;;;;29.73;38.03;101021.82;107397;1278;59260;-87
2023/04/24 06:50:24;;;;;;;5.30;2.70;;;;;;;30.30;35.86;101021.41;107505;1279;59057;-87
2023/04/24 06:52:49;;;;;;;6.50;2.70;;;;;;;30.20;35.36;101028.61;107500;1278;59173;-87
2023/04/24 06:55:16;;;;;;;6.90;2.50;;;;;;;29.33;35.95;101029.42;106892;1284;59054;-86
2023/04/24 06:57:43;;;;;;;16.40;2.70;;;;;;;29.15;36.96;101030.08;106940;1284;59091;-88
2023/04/24 07:00:10;;;;;;;8.50;2.70;;;;;;;28.86;36.83;101034.16;106643;1285;59432;-88
2023/04/24 07:02:35;;;;;;;5.70;2.70;;;;;;;29.11;37.55;101031.13;106600;1284;59093;-88
2023/04/24 07:05:01;;;;;;;7.40;2.70;;;;;;;29.56;37.38;101034.02;106667;1284;70142;-87
2023/04/24 07:07:27;;;;;;;7.40;2.70;;;;;;;30.57;37.04;101031.69;106933;1283;58957;-88
2023/04/24 07:09:53;;;;;;;7.60;2.90;;;;;;;31.69;36.58;101034.22;106954;1283;59103;-88
2023/04/24 07:12:21;;;;;;;7.30;2.80;;;;;;;31.91;34.38;101034.05;106609;1285;59164;-87
2023/04/24 07:14:47;;;;;;;11.20;3.20;;;;;;;32.09;34.44;101028.60;106984;1285;59347;-88
2023/04/24 07:17:13;;;;;;;8.80;3.00;;;;;;;32.02;33.75;101029.39;106464;1284;59088;-88
2023/04/24 07:19:39;;;;;;;9.00;2.70;;;;;;;31.44;34.17;101025.06;106496;1284;59319;-88
2023/04/24 07:22:04;;;;;;;7.40;3.10;;;;;;;31.50;34.76;101021.50;106995;1284;59157;-89
2023/04/24 07:24:32;;;;;;;7.50;2.30;;;;;;;32.39;35.33;101019.77;106823;1285;59974;-86
2023/04/24 07:26:58;;;;;;;8.10;2.70;;;;;;;33.28;34.11;101012.34;107186;1279;73092;-86
2023/04/24 07:29:23;;;;;;;6.30;2.60;;;;;;;33.92;33.64;101005.95;107374;1282;59053;-88
2023/04/24 07:31:49;;;;;;;5.60;2.50;;;;;;;34.11;31.94;101007.73;107562;1278;59060;-89
2023/04/24 07:34:15;;;;;;;4.20;2.80;;;;;;;33.32;31.50;101008.41;107586;1279;59030;-89
2023/04/24 07:36:41;;;;;;;6.60;2.60;;;;;;;32.59;31.79;101010.11;107542;1279;59416;-89
2023/04/24 07:39:08;;;;;;;9.20;2.70;;;;;;;31.83;32.54;101003.05;107566;1279;58920;-88
2023/04/24 07:41:33;;;;;;;7.70;2.80;;;;;;;31.14;33.55;100996.67;107539;1278;59638;-81
2023/04/24 07:43:59;;;;;;;7.30;3.30;;;;;;;30.32;33.87;100997.40;107546;1278;59021;-83
2023/04/24 07:46:25;;;;;;;6.40;2.80;;;;;;;30.00;34.55;100997.82;107532;1279;59075;-83
2023/04/24 07:48:50;;;;;;;6.20;2.70;;;;;;;30.10;35.50;101002.05;107006;1279;59097;-83
2023/04/24 07:51:16;;;;;;;5.10;2.60;;;;;;;30.99;34.98;100995.86;107533;1279;59072;-82
2023/04/24 07:53:43;;;;;;;8.20;2.80;;;;;;;31.33;33.56;101000.02;107577;1278;59120;-83
2023/04/24 07:56:09;;;;;;;8.40;2.60;;;;;;;31.17;33.52;100994.94;107499;1278;74166;-82
2023/04/24 07:58:34;;;;;;;13.20;2.90;;;;;;;31.21;34.85;100993.61;107500;1279;59138;-82
2023/04/24 08:01:00;;;;;;;9.50;2.30;;;;;;;31.51;33.05;100994.05;107503;1278;59035;-81
2023/04/24 08:03:26;;;;;;;6.30;2.60;;;;;;;31.46;32.36;100994.52;107538;1279;59058;-82
2023/04/24 08:05:51;;;;;;;8.90;2.80;;;;;;;30.90;33.21;100993.55;107550;1279;59119;-83
2023/04/24 08:08:17;;;;;;;11.40;2.50;;;;;;;31.37;32.80;100990.33;107554;1279;59068;-83
2023/04/24 08:10:43;;;;;;;10.40;3.00;;;;;;;31.67;32.47;100987.33;107463;1279;61354;-82
2023/04/24 08:13:09;;;;;;;8.60;2.90;;;;;;;31.66;31.88;100982.16;107547;1279;59059;-82
2023/04/24 08:15:34;;;;;;;15.10;2.30;;;;;;;31.39;32.37;100979.30;107511;1279;59059;-83
2023/04/24 08:18:00;;;;;;;8.30;3.10;;;;;;;31.34;32.97;100971.47;107513;1280;58985;-83
2023/04/24 08:20:26;;;;;;;4.50;2.20;;;;;;;31.41;31.37;100971.73;107081;1279;59089;-83
2023/04/24 08:22:51;;;;;;;11.30;2.80;;;;;;;30.98;32.03;100969.80;107552;1278;59048;-82
2023/04/24 08:25:18;;;;;;;9.40;2.40;;;;;;;30.89;32.09;100969.11;107504;1280;74253;-82
2023/04/24 08:27:44;;;;;;;11.20;2.40;;;;;;;30.76;32.29;100966.00;107111;1279;74430;-83
2023/04/24 08:30:09;;;;;;;7.40;2.50;;;;;;;31.44;32.45;100966.14;107506;1278;59073;-82
2023/04/24 08:32:36;;;;;;;8.60;2.70;;;;;;;32.26;31.79;100964.70;107115;1279;60033;-82
2023/04/24 08:35:02;;;;;;;11.10;3.10;;;;;;;32.46;31.05;100964.94;106961;1284;59080;-82
2023/04/24 08:37:28;;;;;;;7.90;2.70;;;;;;;32.23;30.98;100961.67;106981;1283;59122;-83
2023/04/24 08:39:54;;;;;;;8.90;2.70;;;;;;;31.56;30.84;100957.67;106885;1285;59613;-83
2023/04/24 08:42:20;;;;;;;9.90;3.00;;;;;;;30.67;32.17;100953.64;106712;1285;59099;-83
2023/04/24 08:44:48;;;;;;;7.50;2.80;;;;;;;30.71;32.87;100950.63;106824;1284;59597;-84
2023/04/24 08:47:15;;;;;;;9.90;2.70;;;;;;;31.14;31.82;100943.45;106600;1284;59260;-84
2023/04/24 08:49:40;;;;;;;9.90;2.40;;;;;;;29.63;32.22;100937.80;106844;1283;59294;-84
2023/04/24 08:52:06;;;;;;;11.90;2.40;;;;;;;29.23;33.88;100940.95;106948;1285;59864;-84
2023/04/24 08:54:33;;;;;;;9.90;2.60;;;;;;;29.97;33.78;100938.70;106818;1284;59170;-83
2023/04/24 08:57:01;;;;;;;11.10;2.70;;;;;;;30.47;32.45;100941.42;106781;1285;61169;-83
2023/04/24 08:59:27;;;;;;;10.00;2.80;;;;;;;30.77;31.70;100945.82;106594;1285;74666;-83
2023/04/24 09:01:54;;;;;;;10.40;3.00;;;;;;;30.06;32.13;100947.45;106979;1285;59117;-83
2023/04/24 09:04:21;;;;;;;9.80;3.10;;;;;;;29.57;32.51;100944.27;106951;1285;73407;-83
2023/04/24 09:06:49;;;;;;;10.90;3.20;;;;;;;29.36;33.29;100936.19;107172;1279;61069;-83
2023/04/24 09:09:16;;;;;;;15.80;3.40;;;;;;;29.65;33.70;100931.81;107393;1279;61062;-83
2023/04/24 09:11:42;;;;;;;8.30;2.70;;;;;;;30.13;34.12;100929.00;106961;1280;74739;-84
2023/04/24 09:14:09;;;;;;;8.80;3.10;;;;;;;30.18;32.61;100928.56;107328;1279;59131;-83
2023/04/24 09:16:35;;;;;;;8.00;3.00;;;;;;;29.29;33.12;100933.87;107408;1279;59113;-83
2023/04/24 09:19:01;;;;;;;8.60;3.00;;;;;;;28.43;33.62;100937.28;106987;1280;59347;-83
2023/04/24 09:21:33;;;;;;;12.40;3.00;;;;;;;27.63;34.99;100939.35;107368;1279;59228;-83
2023/04/24 09:24:00;;;;;;;20.80;3.30;;;;;;;28.07;36.15;100931.34;107454;1280;75378;-83
2023/04/24 09:26:31;;;;;;;10.40;3.00;;;;;;;28.94;35.06;100929.40;107386;1280;74325;-82
2023/04/24 09:28:57;;;;;;;6.40;2.80;;;;;;;29.09;34.74;100923.19;107475;1278;72523;-82
2023/04/24 09:31:23;;;;;;;7.80;2.60;;;;;;;28.87;34.50;100927.48;107484;1278;59055;-82
2023/04/24 09:34:05;;;;;;;18.90;2.90;;;;;;;28.55;33.83;100929.81;107591;1279;59045;-83
2023/04/24 09:36:33;;;;;;;8.70;3.00;;;;;;;28.01;34.90;100926.98;107085;1280;75724;-82
2023/04/24 09:39:04;;;;;;;13.20;2.70;;;;;;;27.38;35.58;100931.92;107514;1279;74629;-83
2023/04/24 09:41:31;;;;;;;8.30;2.30;;;;;;;26.74;36.40;100928.99;107477;1279;73456;-82
2023/04/24 09:44:10;;;;;;;10.40;2.40;;;;;;;26.36;36.73;100928.89;107018;1279;60080;-82
2023/04/24 09:46:39;;;;;;;14.10;3.30;;;;;;;26.58;37.45;100921.69;107466;1279;59995;-82
2023/04/24 09:49:15;;;;;;;7.80;2.80;;;;;;;26.48;36.45;100923.26;107439;1280;75366;-81
2023/04/24 09:51:41;;;;;;;9.60;3.00;;;;;;;26.02;36.95;100922.39;107533;1280;74382;-81
2023/04/24 09:54:24;;;;;;;10.90;2.60;;;;;;;25.30;38.13;100920.48;107496;1278;59167;-81
2023/04/24 09:56:51;;;;;;;9.60;2.30;;;;;;;24.61;39.24;100920.11;107461;1278;61367;-82
2023/04/24 09:59:18;;;;;;;8.20;2.90;;;;;;;24.17;39.92;100919.17;107115;1279;59146;-82
2023/04/24 10:01:44;;;;;;;9.30;2.50;;;;;;;23.98;40.13;100917.83;107496;1279;73644;-80
2023/04/24 10:04:21;;;;;;;9.40;2.60;;;;;;;24.13;40.69;100912.98;107487;1279;59061;-82
2023/04/24 10:06:51;;;;;;;9.40;2.20;;;;;;;24.53;40.38;100911.12;107379;1278;74507;-82
2023/04/24 10:09:21;;;;;;;8.00;2.40;;;;;;;24.38;39.50;100911.10;107361;1280;61186;-82
2023/04/24 10:11:50;;;;;;;11.10;2.10;;;;;;;23.85;40.20;100916.94;107503;1279;61261;-82
2023/04/24 10:14:20;;;;;;;11.90;2.00;;;;;;;23.55;40.42;100920.05;107380;1279;74725;-83
2023/04/24 10:16:49;;;;;;;6.10;1.80;;;;;;;23.64;41.43;100914.77;106990;1282;73368;-83
2023/04/24 10:19:18;;;;;;;10.20;2.20;;;;;;;23.83;40.45;100913.38;107032;1282;73246;-82
2023/04/24 10:21:46;;;;;;;7.70;2.50;;;;;;;23.60;40.39;100914.79;106993;1282;60036;-82
2023/04/24 10:24:17;;;;;;;11.30;2.60;;;;;;;23.44;40.39;100909.28;106735;1283;59993;-82
2023/04/24 10:26:45;;;;;;;10.80;2.20;;;;;;;23.25;40.61;100904.39;107054;1282;75474;-83
2023/04/24 10:29:12;;;;;;;11.60;2.40;;;;;;;23.14;40.96;100900.06;106656;1282;73341;-82
2023/04/24 10:31:38;;;;;;;8.60;2.30;;;;;;;22.91;41.58;100904.36;107039;1282;73501;-83
2023/04/24 10:34:08;;;;;;;9.00;1.90;;;;;;;22.90;41.73;100901.16;107016;1282;59074;-83
2023/04/24 10:36:35;;;;;;;6.10;2.00;;;;;;;23.27;41.61;100895.95;107023;1282;60027;-83
2023/04/24 10:39:06;;;;;;;7.30;2.20;;;;;;;23.60;41.79;100891.84;107020;1282;75364;-83
2023/04/24 10:41:31;;;;;;;10.50;2.70;;;;;;;23.48;41.85;100894.55;107068;1282;74783;-83
2023/04/24 10:44:16;;;;;;;7.30;2.30;;;;;;;23.16;41.50;100896.61;107013;1282;59899;-82
2023/04/24 10:46:48;;;;;;;12.10;2.60;;;;;;;22.50;41.98;100897.15;106986;1283;60199;-83
2023/04/24 10:49:13;;;;;;;9.40;1.80;;;;;;;22.30;42.57;100896.15;107480;1280;58949;-81
2023/04/24 10:51:47;;;;;;;6.70;2.30;;;;;;;22.63;43.28;100893.39;107554;1279;58988;-82
2023/04/24 10:54:29;;;;;;;8.70;2.00;;;;;;;23.06;42.90;100890.08;107468;1279;74082;-82
2023/04/24 10:57:20;;;;;;;6.50;2.40;;;;;;;23.34;42.21;100886.78;107496;1279;73495;-82
2023/04/24 10:59:47;;;;;;;9.40;2.20;;;;;;;23.46;41.94;100887.02;107450;1278;61216;-82
2023/04/24 11:02:16;;;;;;;10.50;2.20;;;;;;;23.70;41.81;100882.20;107473;1279;60238;-82
2023/04/24 11:04:45;;;;;;;9.90;2.50;;;;;;;24.08;42.13;100881.17;107457;1279;75731;-82
2023/04/24 11:07:11;;;;;;;9.60;2.50;;;;;;;24.09;40.79;100877.98;107497;1279;72297;-82
2023/04/24 11:09:40;;;;;;;8.00;2.40;;;;;;;23.83;42.36;100878.41;107449;1278;59131;-82
2023/04/24 11:12:10;;;;;;;6.30;2.00;;;;;;;23.99;42.09;100882.58;107452;1278;61006;-82